sensor_id;sensor_type;location;lat;lon;timestamp;P1;durP1;ratioP1;P2;durP2;ratioP2
15595;SDS011;7898;48.658;9.068;2023-08-06T00:00:56;13.48;;;8.80;;
15595;SDS011;7898;48.658;9.068;2023-08-06T00:03:23;8.35;;;6.43;;
15595;SDS011;7898;48.658;9.068;2023-08-06T00:05:50;8.27;;;6.13;;
15595;SDS011;7898;48.658;9.068;2023-08-06T00:08:16;9.27;;;6.78;;
15595;SDS011;7898;48.658;9.068;2023-08-06T00:10:43;9.02;;;6.05;;
15595;SDS011;7898;48.658;9.068;2023-08-06T00:13:10;8.13;;;6.43;;
15595;SDS011;7898;48.658;9.068;2023-08-06T00:15:38;8.65;;;5.78;;
15595;SDS011;7898;48.658;9.068;2023-08-06T00:18:05;7.50;;;5.80;;
15595;SDS011;7898;48.658;9.068;2023-08-06T00:20:32;8.18;;;5.18;;
15595;SDS011;7898;48.658;9.068;2023-08-06T00:22:59;8.70;;;5.97;;
15595;SDS011;7898;48.658;9.068;2023-08-06T00:25:26;8.95;;;5.90;;
15595;SDS011;7898;48.658;9.068;2023-08-06T00:27:52;8.40;;;6.78;;
15595;SDS011;7898;48.658;9.068;2023-08-06T00:30:21;8.15;;;7.07;;
15595;SDS011;7898;48.658;9.068;2023-08-06T00:32:49;10.32;;;7.72;;
15595;SDS011;7898;48.658;9.068;2023-08-06T00:35:16;11.02;;;7.47;;
15595;SDS011;7898;48.658;9.068;2023-08-06T00:37:43;8.00;;;6.75;;
15595;SDS011;7898;48.658;9.068;2023-08-06T00:40:10;10.02;;;8.40;;
15595;SDS011;7898;48.658;9.068;2023-08-06T00:42:37;10.25;;;8.10;;
15595;SDS011;7898;48.658;9.068;2023-08-06T00:45:04;11.88;;;8.13;;
15595;SDS011;7898;48.658;9.068;2023-08-06T00:47:31;12.15;;;7.18;;
15595;SDS011;7898;48.658;9.068;2023-08-06T00:50:00;11.43;;;7.28;;
15595;SDS011;7898;48.658;9.068;2023-08-06T00:52:27;12.50;;;7.63;;
15595;SDS011;7898;48.658;9.068;2023-08-06T00:54:53;8.30;;;6.70;;
15595;SDS011;7898;48.658;9.068;2023-08-06T00:57:21;7.57;;;6.75;;
15595;SDS011;7898;48.658;9.068;2023-08-06T00:59:51;9.43;;;7.05;;
15595;SDS011;7898;48.658;9.068;2023-08-06T01:02:19;9.80;;;7.13;;
15595;SDS011;7898;48.658;9.068;2023-08-06T01:04:46;9.38;;;7.32;;
15595;SDS011;7898;48.658;9.068;2023-08-06T01:07:16;9.68;;;6.88;;
15595;SDS011;7898;48.658;9.068;2023-08-06T01:09:54;15.63;;;11.07;;
15595;SDS011;7898;48.658;9.068;2023-08-06T01:12:29;20.80;;;12.82;;
15595;SDS011;7898;48.658;9.068;2023-08-06T01:15:02;16.70;;;13.05;;
15595;SDS011;7898;48.658;9.068;2023-08-06T01:17:36;14.70;;;10.75;;
15595;SDS011;7898;48.658;9.068;2023-08-06T01:20:04;12.63;;;9.32;;
15595;SDS011;7898;48.658;9.068;2023-08-06T01:22:32;13.05;;;9.38;;
15595;SDS011;7898;48.658;9.068;2023-08-06T01:24:59;10.15;;;6.80;;
15595;SDS011;7898;48.658;9.068;2023-08-06T01:27:27;8.98;;;6.97;;
15595;SDS011;7898;48.658;9.068;2023-08-06T01:29:57;10.68;;;7.00;;
15595;SDS011;7898;48.658;9.068;2023-08-06T01:32:30;7.30;;;5.80;;
15595;SDS011;7898;48.658;9.068;2023-08-06T01:35:00;6.53;;;4.60;;
15595;SDS011;7898;48.658;9.068;2023-08-06T01:37:28;7.38;;;4.55;;
15595;SDS011;7898;48.658;9.068;2023-08-06T01:39:57;6.63;;;3.45;;
15595;SDS011;7898;48.658;9.068;2023-08-06T01:42:23;4.88;;;3.75;;
15595;SDS011;7898;48.658;9.068;2023-08-06T01:44:50;4.82;;;3.75;;
15595;SDS011;7898;48.658;9.068;2023-08-06T01:47:17;5.75;;;3.85;;
15595;SDS011;7898;48.658;9.068;2023-08-06T01:49:44;5.32;;;4.30;;
15595;SDS011;7898;48.658;9.068;2023-08-06T01:52:11;5.38;;;4.03;;
15595;SDS011;7898;48.658;9.068;2023-08-06T01:54:38;8.20;;;5.47;;
15595;SDS011;7898;48.658;9.068;2023-08-06T01:57:06;7.75;;;5.78;;
15595;SDS011;7898;48.658;9.068;2023-08-06T01:59:33;12.52;;;6.00;;
15595;SDS011;7898;48.658;9.068;2023-08-06T02:02:00;10.98;;;6.57;;
15595;SDS011;7898;48.658;9.068;2023-08-06T02:04:27;9.95;;;6.90;;
15595;SDS011;7898;48.658;9.068;2023-08-06T02:06:53;12.77;;;8.25;;
15595;SDS011;7898;48.658;9.068;2023-08-06T02:09:20;10.50;;;7.65;;
15595;SDS011;7898;48.658;9.068;2023-08-06T02:11:47;8.57;;;5.95;;
15595;SDS011;7898;48.658;9.068;2023-08-06T02:14:15;15.57;;;9.52;;
15595;SDS011;7898;48.658;9.068;2023-08-06T02:16:42;15.13;;;8.82;;
15595;SDS011;7898;48.658;9.068;2023-08-06T02:19:08;15.65;;;8.60;;
15595;SDS011;7898;48.658;9.068;2023-08-06T02:21:35;20.25;;;9.52;;
15595;SDS011;7898;48.658;9.068;2023-08-06T02:24:02;12.80;;;8.20;;
15595;SDS011;7898;48.658;9.068;2023-08-06T02:26:29;18.85;;;9.35;;
15595;SDS011;7898;48.658;9.068;2023-08-06T02:28:56;12.13;;;8.32;;
15595;SDS011;7898;48.658;9.068;2023-08-06T02:31:24;13.60;;;7.25;;
15595;SDS011;7898;48.658;9.068;2023-08-06T02:33:51;8.73;;;5.72;;
15595;SDS011;7898;48.658;9.068;2023-08-06T02:36:19;12.43;;;5.88;;
15595;SDS011;7898;48.658;9.068;2023-08-06T02:38:45;7.90;;;5.18;;
15595;SDS011;7898;48.658;9.068;2023-08-06T02:41:13;12.23;;;6.05;;
15595;SDS011;7898;48.658;9.068;2023-08-06T02:43:40;7.68;;;5.57;;
15595;SDS011;7898;48.658;9.068;2023-08-06T02:46:06;7.65;;;4.50;;
15595;SDS011;7898;48.658;9.068;2023-08-06T02:48:35;9.10;;;5.13;;
15595;SDS011;7898;48.658;9.068;2023-08-06T02:51:01;5.63;;;4.20;;
15595;SDS011;7898;48.658;9.068;2023-08-06T02:53:28;4.90;;;3.50;;
15595;SDS011;7898;48.658;9.068;2023-08-06T02:55:56;4.45;;;3.40;;
15595;SDS011;7898;48.658;9.068;2023-08-06T02:58:24;4.55;;;3.20;;
15595;SDS011;7898;48.658;9.068;2023-08-06T03:01:00;3.25;;;2.88;;
15595;SDS011;7898;48.658;9.068;2023-08-06T03:03:28;5.22;;;2.60;;
15595;SDS011;7898;48.658;9.068;2023-08-06T03:05:57;4.25;;;2.30;;
15595;SDS011;7898;48.658;9.068;2023-08-06T03:08:24;5.07;;;2.88;;
15595;SDS011;7898;48.658;9.068;2023-08-06T03:10:51;4.30;;;2.67;;
15595;SDS011;7898;48.658;9.068;2023-08-06T03:13:18;5.60;;;2.50;;
15595;SDS011;7898;48.658;9.068;2023-08-06T03:15:51;4.05;;;2.30;;
15595;SDS011;7898;48.658;9.068;2023-08-06T03:18:19;5.38;;;2.60;;
15595;SDS011;7898;48.658;9.068;2023-08-06T03:20:45;3.08;;;2.40;;
15595;SDS011;7898;48.658;9.068;2023-08-06T03:23:14;4.55;;;2.28;;
15595;SDS011;7898;48.658;9.068;2023-08-06T03:25:41;4.53;;;2.30;;
15595;SDS011;7898;48.658;9.068;2023-08-06T03:28:07;3.45;;;2.20;;
15595;SDS011;7898;48.658;9.068;2023-08-06T03:30:34;4.30;;;2.15;;
15595;SDS011;7898;48.658;9.068;2023-08-06T03:33:01;4.80;;;2.20;;
15595;SDS011;7898;48.658;9.068;2023-08-06T03:35:28;2.70;;;2.17;;
15595;SDS011;7898;48.658;9.068;2023-08-06T03:37:55;3.20;;;1.98;;
15595;SDS011;7898;48.658;9.068;2023-08-06T03:40:23;3.65;;;2.10;;
15595;SDS011;7898;48.658;9.068;2023-08-06T03:42:50;5.10;;;2.03;;
15595;SDS011;7898;48.658;9.068;2023-08-06T03:45:17;2.35;;;1.92;;
15595;SDS011;7898;48.658;9.068;2023-08-06T03:47:44;2.88;;;2.03;;
15595;SDS011;7898;48.658;9.068;2023-08-06T03:50:11;3.30;;;2.20;;
15595;SDS011;7898;48.658;9.068;2023-08-06T03:52:37;3.67;;;1.90;;
15595;SDS011;7898;48.658;9.068;2023-08-06T03:55:04;3.45;;;1.70;;
15595;SDS011;7898;48.658;9.068;2023-08-06T03:57:33;3.17;;;2.08;;
15595;SDS011;7898;48.658;9.068;2023-08-06T04:00:00;4.75;;;1.98;;
15595;SDS011;7898;48.658;9.068;2023-08-06T04:02:27;3.47;;;2.15;;
15595;SDS011;7898;48.658;9.068;2023-08-06T04:04:54;2.20;;;1.90;;
15595;SDS011;7898;48.658;9.068;2023-08-06T04:07:21;4.30;;;2.28;;
15595;SDS011;7898;48.658;9.068;2023-08-06T04:09:54;2.85;;;1.70;;
15595;SDS011;7898;48.658;9.068;2023-08-06T04:12:23;5.75;;;2.20;;
15595;SDS011;7898;48.658;9.068;2023-08-06T04:14:51;4.40;;;1.90;;
15595;SDS011;7898;48.658;9.068;2023-08-06T04:17:19;4.72;;;1.77;;
15595;SDS011;7898;48.658;9.068;2023-08-06T04:19:47;4.38;;;1.67;;
15595;SDS011;7898;48.658;9.068;2023-08-06T04:22:15;2.55;;;1.88;;
15595;SDS011;7898;48.658;9.068;2023-08-06T04:24:42;3.45;;;1.70;;
15595;SDS011;7898;48.658;9.068;2023-08-06T04:27:09;2.05;;;1.45;;
15595;SDS011;7898;48.658;9.068;2023-08-06T04:29:36;3.20;;;1.75;;
15595;SDS011;7898;48.658;9.068;2023-08-06T04:32:06;4.32;;;1.80;;
15595;SDS011;7898;48.658;9.068;2023-08-06T04:34:34;3.67;;;1.52;;
15595;SDS011;7898;48.658;9.068;2023-08-06T04:37:02;3.83;;;1.67;;
15595;SDS011;7898;48.658;9.068;2023-08-06T04:39:29;4.75;;;1.95;;
15595;SDS011;7898;48.658;9.068;2023-08-06T04:41:56;4.10;;;1.83;;
15595;SDS011;7898;48.658;9.068;2023-08-06T04:44:23;2.75;;;1.73;;
15595;SDS011;7898;48.658;9.068;2023-08-06T04:46:50;3.88;;;1.63;;
15595;SDS011;7898;48.658;9.068;2023-08-06T04:49:19;2.30;;;1.50;;
15595;SDS011;7898;48.658;9.068;2023-08-06T04:51:47;2.75;;;1.60;;
15595;SDS011;7898;48.658;9.068;2023-08-06T04:54:14;2.15;;;1.30;;
15595;SDS011;7898;48.658;9.068;2023-08-06T04:56:40;2.15;;;1.58;;
15595;SDS011;7898;48.658;9.068;2023-08-06T04:59:07;2.60;;;1.60;;
15595;SDS011;7898;48.658;9.068;2023-08-06T05:01:34;4.80;;;1.50;;
15595;SDS011;7898;48.658;9.068;2023-08-06T05:04:01;3.20;;;1.38;;
15595;SDS011;7898;48.658;9.068;2023-08-06T05:06:29;2.95;;;1.70;;
15595;SDS011;7898;48.658;9.068;2023-08-06T05:08:56;2.22;;;1.25;;
15595;SDS011;7898;48.658;9.068;2023-08-06T05:11:23;3.35;;;1.25;;
15595;SDS011;7898;48.658;9.068;2023-08-06T05:13:50;1.20;;;1.10;;
15595;SDS011;7898;48.658;9.068;2023-08-06T05:16:17;5.22;;;1.08;;
15595;SDS011;7898;48.658;9.068;2023-08-06T05:18:44;3.30;;;1.25;;
15595;SDS011;7898;48.658;9.068;2023-08-06T05:21:11;2.92;;;1.10;;
15595;SDS011;7898;48.658;9.068;2023-08-06T05:23:39;2.15;;;1.10;;
15595;SDS011;7898;48.658;9.068;2023-08-06T05:26:06;3.40;;;1.00;;
15595;SDS011;7898;48.658;9.068;2023-08-06T05:28:33;1.98;;;1.10;;
15595;SDS011;7898;48.658;9.068;2023-08-06T05:31:02;2.20;;;0.77;;
15595;SDS011;7898;48.658;9.068;2023-08-06T05:33:30;3.13;;;0.80;;
15595;SDS011;7898;48.658;9.068;2023-08-06T05:35:57;1.65;;;0.90;;
15595;SDS011;7898;48.658;9.068;2023-08-06T05:38:23;2.35;;;0.90;;
15595;SDS011;7898;48.658;9.068;2023-08-06T05:40:52;1.30;;;0.68;;
15595;SDS011;7898;48.658;9.068;2023-08-06T05:43:19;2.10;;;1.17;;
15595;SDS011;7898;48.658;9.068;2023-08-06T05:45:46;1.60;;;0.70;;
15595;SDS011;7898;48.658;9.068;2023-08-06T05:48:15;2.22;;;1.00;;
15595;SDS011;7898;48.658;9.068;2023-08-06T05:50:42;1.00;;;0.70;;
15595;SDS011;7898;48.658;9.068;2023-08-06T05:53:09;1.30;;;0.82;;
15595;SDS011;7898;48.658;9.068;2023-08-06T05:55:36;3.88;;;0.95;;
15595;SDS011;7898;48.658;9.068;2023-08-06T05:58:04;1.30;;;1.00;;
15595;SDS011;7898;48.658;9.068;2023-08-06T06:00:31;2.17;;;0.80;;
15595;SDS011;7898;48.658;9.068;2023-08-06T06:02:58;0.88;;;0.60;;
15595;SDS011;7898;48.658;9.068;2023-08-06T06:05:25;2.53;;;0.73;;
15595;SDS011;7898;48.658;9.068;2023-08-06T06:07:51;1.85;;;0.90;;
15595;SDS011;7898;48.658;9.068;2023-08-06T06:10:18;1.95;;;0.68;;
15595;SDS011;7898;48.658;9.068;2023-08-06T06:12:45;1.50;;;0.82;;
15595;SDS011;7898;48.658;9.068;2023-08-06T06:15:13;2.28;;;1.05;;
15595;SDS011;7898;48.658;9.068;2023-08-06T06:17:40;1.92;;;1.10;;
15595;SDS011;7898;48.658;9.068;2023-08-06T06:20:07;1.88;;;1.10;;
15595;SDS011;7898;48.658;9.068;2023-08-06T06:22:35;1.50;;;0.82;;
15595;SDS011;7898;48.658;9.068;2023-08-06T06:25:01;2.10;;;0.80;;
15595;SDS011;7898;48.658;9.068;2023-08-06T06:27:29;2.63;;;1.02;;
15595;SDS011;7898;48.658;9.068;2023-08-06T06:29:55;3.35;;;1.10;;
15595;SDS011;7898;48.658;9.068;2023-08-06T06:32:24;2.50;;;0.80;;
15595;SDS011;7898;48.658;9.068;2023-08-06T06:34:51;3.25;;;0.93;;
15595;SDS011;7898;48.658;9.068;2023-08-06T06:37:18;2.53;;;0.90;;
15595;SDS011;7898;48.658;9.068;2023-08-06T06:39:45;2.88;;;1.02;;
15595;SDS011;7898;48.658;9.068;2023-08-06T06:42:12;4.47;;;1.33;;
15595;SDS011;7898;48.658;9.068;2023-08-06T06:44:40;1.73;;;0.98;;
15595;SDS011;7898;48.658;9.068;2023-08-06T06:47:07;2.20;;;0.90;;
15595;SDS011;7898;48.658;9.068;2023-08-06T06:49:35;2.90;;;1.00;;
15595;SDS011;7898;48.658;9.068;2023-08-06T06:52:02;1.75;;;1.13;;
15595;SDS011;7898;48.658;9.068;2023-08-06T06:54:29;2.20;;;0.82;;
15595;SDS011;7898;48.658;9.068;2023-08-06T06:56:56;1.60;;;0.90;;
15595;SDS011;7898;48.658;9.068;2023-08-06T06:59:23;2.58;;;0.88;;
15595;SDS011;7898;48.658;9.068;2023-08-06T07:01:50;3.35;;;0.93;;
15595;SDS011;7898;48.658;9.068;2023-08-06T07:04:17;0.93;;;0.35;;
15595;SDS011;7898;48.658;9.068;2023-08-06T07:06:45;0.80;;;0.50;;
15595;SDS011;7898;48.658;9.068;2023-08-06T07:09:12;1.50;;;0.70;;
15595;SDS011;7898;48.658;9.068;2023-08-06T07:11:39;0.60;;;0.50;;
15595;SDS011;7898;48.658;9.068;2023-08-06T07:14:08;0.50;;;0.40;;
15595;SDS011;7898;48.658;9.068;2023-08-06T07:16:35;1.02;;;0.38;;
15595;SDS011;7898;48.658;9.068;2023-08-06T07:19:02;0.93;;;0.60;;
15595;SDS011;7898;48.658;9.068;2023-08-06T07:21:30;0.30;;;0.30;;
15595;SDS011;7898;48.658;9.068;2023-08-06T07:23:59;0.38;;;0.20;;
15595;SDS011;7898;48.658;9.068;2023-08-06T07:26:25;0.63;;;0.20;;
15595;SDS011;7898;48.658;9.068;2023-08-06T07:28:52;0.32;;;0.25;;
15595;SDS011;7898;48.658;9.068;2023-08-06T07:31:19;0.50;;;0.35;;
15595;SDS011;7898;48.658;9.068;2023-08-06T07:33:46;0.30;;;0.30;;
15595;SDS011;7898;48.658;9.068;2023-08-06T07:36:13;0.50;;;0.20;;
15595;SDS011;7898;48.658;9.068;2023-08-06T07:38:40;0.95;;;0.30;;
15595;SDS011;7898;48.658;9.068;2023-08-06T07:41:09;0.40;;;0.20;;
15595;SDS011;7898;48.658;9.068;2023-08-06T07:43:36;0.50;;;0.30;;
15595;SDS011;7898;48.658;9.068;2023-08-06T07:46:03;0.20;;;0.20;;
15595;SDS011;7898;48.658;9.068;2023-08-06T07:48:30;1.00;;;0.30;;
15595;SDS011;7898;48.658;9.068;2023-08-06T07:50:57;0.20;;;0.20;;
15595;SDS011;7898;48.658;9.068;2023-08-06T07:53:24;0.20;;;0.20;;
15595;SDS011;7898;48.658;9.068;2023-08-06T07:55:54;0.82;;;0.35;;
15595;SDS011;7898;48.658;9.068;2023-08-06T07:58:23;0.25;;;0.20;;
15595;SDS011;7898;48.658;9.068;2023-08-06T08:00:51;1.05;;;0.25;;
15595;SDS011;7898;48.658;9.068;2023-08-06T08:03:18;0.30;;;0.20;;
15595;SDS011;7898;48.658;9.068;2023-08-06T08:05:45;0.80;;;0.30;;
15595;SDS011;7898;48.658;9.068;2023-08-06T08:08:12;0.17;;;0.10;;
15595;SDS011;7898;48.658;9.068;2023-08-06T08:10:39;0.30;;;0.20;;
15595;SDS011;7898;48.658;9.068;2023-08-06T08:13:06;0.20;;;0.20;;
15595;SDS011;7898;48.658;9.068;2023-08-06T08:15:34;0.40;;;0.20;;
15595;SDS011;7898;48.658;9.068;2023-08-06T08:18:01;2.50;;;0.30;;
15595;SDS011;7898;48.658;9.068;2023-08-06T08:20:28;0.17;;;0.17;;
15595;SDS011;7898;48.658;9.068;2023-08-06T08:22:57;0.68;;;0.30;;
15595;SDS011;7898;48.658;9.068;2023-08-06T08:25:25;1.38;;;0.20;;
15595;SDS011;7898;48.658;9.068;2023-08-06T08:27:52;0.90;;;0.30;;
15595;SDS011;7898;48.658;9.068;2023-08-06T08:30:20;0.20;;;0.20;;
15595;SDS011;7898;48.658;9.068;2023-08-06T08:32:48;0.80;;;0.20;;
15595;SDS011;7898;48.658;9.068;2023-08-06T08:35:15;1.85;;;0.20;;
15595;SDS011;7898;48.658;9.068;2023-08-06T08:37:42;0.65;;;0.30;;
15595;SDS011;7898;48.658;9.068;2023-08-06T08:40:09;0.30;;;0.20;;
15595;SDS011;7898;48.658;9.068;2023-08-06T08:42:36;0.77;;;0.10;;
15595;SDS011;7898;48.658;9.068;2023-08-06T08:45:04;0.22;;;0.13;;
15595;SDS011;7898;48.658;9.068;2023-08-06T08:47:32;0.30;;;0.20;;
15595;SDS011;7898;48.658;9.068;2023-08-06T08:50:00;0.50;;;0.28;;
15595;SDS011;7898;48.658;9.068;2023-08-06T08:52:28;0.47;;;0.20;;
15595;SDS011;7898;48.658;9.068;2023-08-06T08:54:57;0.52;;;0.22;;
15595;SDS011;7898;48.658;9.068;2023-08-06T08:57:26;0.20;;;0.10;;
15595;SDS011;7898;48.658;9.068;2023-08-06T08:59:53;1.05;;;0.10;;
15595;SDS011;7898;48.658;9.068;2023-08-06T09:02:20;0.47;;;0.17;;
15595;SDS011;7898;48.658;9.068;2023-08-06T09:04:48;0.45;;;0.25;;
15595;SDS011;7898;48.658;9.068;2023-08-06T09:07:18;0.32;;;0.10;;
15595;SDS011;7898;48.658;9.068;2023-08-06T09:09:48;0.10;;;0.10;;
15595;SDS011;7898;48.658;9.068;2023-08-06T09:12:17;0.98;;;0.30;;
15595;SDS011;7898;48.658;9.068;2023-08-06T09:14:44;1.85;;;0.20;;
15595;SDS011;7898;48.658;9.068;2023-08-06T09:17:11;0.10;;;0.08;;
15595;SDS011;7898;48.658;9.068;2023-08-06T09:19:39;0.90;;;0.47;;
15595;SDS011;7898;48.658;9.068;2023-08-06T09:22:11;1.35;;;0.20;;
15595;SDS011;7898;48.658;9.068;2023-08-06T09:24:40;0.30;;;0.10;;
15595;SDS011;7898;48.658;9.068;2023-08-06T09:27:10;0.20;;;0.20;;
15595;SDS011;7898;48.658;9.068;2023-08-06T09:29:40;0.20;;;0.13;;
15595;SDS011;7898;48.658;9.068;2023-08-06T09:32:08;0.47;;;0.20;;
15595;SDS011;7898;48.658;9.068;2023-08-06T09:34:35;0.35;;;0.17;;
15595;SDS011;7898;48.658;9.068;2023-08-06T09:37:05;0.20;;;0.20;;
15595;SDS011;7898;48.658;9.068;2023-08-06T09:39:35;0.57;;;0.10;;
15595;SDS011;7898;48.658;9.068;2023-08-06T09:42:03;0.88;;;0.10;;
15595;SDS011;7898;48.658;9.068;2023-08-06T09:44:31;0.10;;;0.10;;
15595;SDS011;7898;48.658;9.068;2023-08-06T09:46:59;0.20;;;0.10;;
15595;SDS011;7898;48.658;9.068;2023-08-06T09:49:27;0.20;;;0.10;;
15595;SDS011;7898;48.658;9.068;2023-08-06T09:52:06;0.50;;;0.30;;
15595;SDS011;7898;48.658;9.068;2023-08-06T09:54:35;0.50;;;0.20;;
15595;SDS011;7898;48.658;9.068;2023-08-06T09:57:05;3.47;;;0.35;;
15595;SDS011;7898;48.658;9.068;2023-08-06T09:59:32;1.42;;;0.20;;
15595;SDS011;7898;48.658;9.068;2023-08-06T10:02:00;1.10;;;0.20;;
15595;SDS011;7898;48.658;9.068;2023-08-06T10:04:28;0.20;;;0.10;;
15595;SDS011;7898;48.658;9.068;2023-08-06T10:06:56;0.55;;;0.22;;
15595;SDS011;7898;48.658;9.068;2023-08-06T10:09:24;1.08;;;0.20;;
15595;SDS011;7898;48.658;9.068;2023-08-06T10:11:51;0.55;;;0.30;;
15595;SDS011;7898;48.658;9.068;2023-08-06T10:14:21;0.10;;;0.10;;
15595;SDS011;7898;48.658;9.068;2023-08-06T10:16:51;0.85;;;0.35;;
15595;SDS011;7898;48.658;9.068;2023-08-06T10:19:20;0.55;;;0.20;;
15595;SDS011;7898;48.658;9.068;2023-08-06T10:24:49;0.93;;;0.40;;
15595;SDS011;7898;48.658;9.068;2023-08-06T10:27:21;0.57;;;0.40;;
15595;SDS011;7898;48.658;9.068;2023-08-06T10:29:50;0.63;;;0.40;;
15595;SDS011;7898;48.658;9.068;2023-08-06T10:32:17;0.93;;;0.40;;
15595;SDS011;7898;48.658;9.068;2023-08-06T10:34:57;0.20;;;0.10;;
15595;SDS011;7898;48.658;9.068;2023-08-06T10:37:34;0.40;;;0.30;;
15595;SDS011;7898;48.658;9.068;2023-08-06T10:40:01;0.40;;;0.30;;
15595;SDS011;7898;48.658;9.068;2023-08-06T10:42:29;0.20;;;0.20;;
15595;SDS011;7898;48.658;9.068;2023-08-06T10:45:17;0.90;;;0.30;;
15595;SDS011;7898;48.658;9.068;2023-08-06T10:47:45;0.52;;;0.30;;
15595;SDS011;7898;48.658;9.068;2023-08-06T10:50:13;0.70;;;0.50;;
15595;SDS011;7898;48.658;9.068;2023-08-06T10:52:43;0.30;;;0.20;;
15595;SDS011;7898;48.658;9.068;2023-08-06T10:55:10;0.90;;;0.40;;
15595;SDS011;7898;48.658;9.068;2023-08-06T10:57:37;0.40;;;0.30;;
15595;SDS011;7898;48.658;9.068;2023-08-06T11:00:04;0.30;;;0.20;;
15595;SDS011;7898;48.658;9.068;2023-08-06T11:02:35;0.45;;;0.20;;
15595;SDS011;7898;48.658;9.068;2023-08-06T11:05:05;0.57;;;0.22;;
15595;SDS011;7898;48.658;9.068;2023-08-06T11:07:33;1.15;;;0.10;;
15595;SDS011;7898;48.658;9.068;2023-08-06T11:10:01;0.43;;;0.20;;
15595;SDS011;7898;48.658;9.068;2023-08-06T11:12:29;0.73;;;0.20;;
15595;SDS011;7898;48.658;9.068;2023-08-06T11:14:56;0.73;;;0.25;;
15595;SDS011;7898;48.658;9.068;2023-08-06T11:17:23;0.35;;;0.20;;
15595;SDS011;7898;48.658;9.068;2023-08-06T11:19:52;0.30;;;0.20;;
15595;SDS011;7898;48.658;9.068;2023-08-06T11:22:20;0.30;;;0.25;;
15595;SDS011;7898;48.658;9.068;2023-08-06T11:24:47;0.60;;;0.43;;
15595;SDS011;7898;48.658;9.068;2023-08-06T11:27:14;0.75;;;0.20;;
15595;SDS011;7898;48.658;9.068;2023-08-06T11:29:42;0.40;;;0.30;;
15595;SDS011;7898;48.658;9.068;2023-08-06T11:32:10;1.63;;;0.32;;
15595;SDS011;7898;48.658;9.068;2023-08-06T11:34:38;0.28;;;0.20;;
15595;SDS011;7898;48.658;9.068;2023-08-06T11:37:07;1.00;;;0.40;;
15595;SDS011;7898;48.658;9.068;2023-08-06T11:39:35;0.30;;;0.20;;
15595;SDS011;7898;48.658;9.068;2023-08-06T11:42:03;0.20;;;0.20;;
15595;SDS011;7898;48.658;9.068;2023-08-06T11:44:32;0.40;;;0.40;;
15595;SDS011;7898;48.658;9.068;2023-08-06T11:47:01;0.75;;;0.30;;
15595;SDS011;7898;48.658;9.068;2023-08-06T11:49:39;0.60;;;0.40;;
15595;SDS011;7898;48.658;9.068;2023-08-06T11:52:15;0.28;;;0.20;;
15595;SDS011;7898;48.658;9.068;2023-08-06T11:54:44;0.50;;;0.40;;
15595;SDS011;7898;48.658;9.068;2023-08-06T11:57:12;0.40;;;0.40;;
15595;SDS011;7898;48.658;9.068;2023-08-06T11:59:39;0.70;;;0.40;;
15595;SDS011;7898;48.658;9.068;2023-08-06T12:02:08;1.10;;;0.60;;
15595;SDS011;7898;48.658;9.068;2023-08-06T12:07:31;0.80;;;0.40;;
15595;SDS011;7898;48.658;9.068;2023-08-06T12:09:59;0.45;;;0.38;;
15595;SDS011;7898;48.658;9.068;2023-08-06T12:12:26;0.52;;;0.52;;
15595;SDS011;7898;48.658;9.068;2023-08-06T12:14:54;0.93;;;0.60;;
15595;SDS011;7898;48.658;9.068;2023-08-06T12:17:22;0.60;;;0.50;;
15595;SDS011;7898;48.658;9.068;2023-08-06T12:19:49;0.65;;;0.60;;
15595;SDS011;7898;48.658;9.068;2023-08-06T12:22:16;0.65;;;0.50;;
15595;SDS011;7898;48.658;9.068;2023-08-06T12:24:45;0.82;;;0.57;;
15595;SDS011;7898;48.658;9.068;2023-08-06T12:27:13;1.48;;;0.57;;
15595;SDS011;7898;48.658;9.068;2023-08-06T12:29:40;1.25;;;0.60;;
15595;SDS011;7898;48.658;9.068;2023-08-06T12:32:08;0.52;;;0.47;;
15595;SDS011;7898;48.658;9.068;2023-08-06T12:34:35;4.63;;;0.68;;
15595;SDS011;7898;48.658;9.068;2023-08-06T12:37:03;1.20;;;0.80;;
15595;SDS011;7898;48.658;9.068;2023-08-06T12:39:30;1.38;;;0.80;;
15595;SDS011;7898;48.658;9.068;2023-08-06T12:41:59;0.90;;;0.60;;
15595;SDS011;7898;48.658;9.068;2023-08-06T12:44:27;1.98;;;0.90;;
15595;SDS011;7898;48.658;9.068;2023-08-06T12:46:55;2.70;;;0.90;;
15595;SDS011;7898;48.658;9.068;2023-08-06T12:49:22;1.52;;;0.85;;
15595;SDS011;7898;48.658;9.068;2023-08-06T12:51:49;1.30;;;0.70;;
15595;SDS011;7898;48.658;9.068;2023-08-06T12:54:17;0.55;;;0.52;;
15595;SDS011;7898;48.658;9.068;2023-08-06T12:56:44;1.08;;;0.50;;
15595;SDS011;7898;48.658;9.068;2023-08-06T12:59:13;0.68;;;0.60;;
15595;SDS011;7898;48.658;9.068;2023-08-06T13:01:41;1.25;;;0.90;;
15595;SDS011;7898;48.658;9.068;2023-08-06T13:04:08;0.55;;;0.50;;
15595;SDS011;7898;48.658;9.068;2023-08-06T13:06:35;1.35;;;0.60;;
15595;SDS011;7898;48.658;9.068;2023-08-06T13:09:02;0.57;;;0.57;;
15595;SDS011;7898;48.658;9.068;2023-08-06T13:11:29;0.82;;;0.57;;
15595;SDS011;7898;48.658;9.068;2023-08-06T13:13:59;0.63;;;0.60;;
15595;SDS011;7898;48.658;9.068;2023-08-06T13:16:31;1.15;;;0.60;;
15595;SDS011;7898;48.658;9.068;2023-08-06T13:18:58;2.97;;;0.70;;
15595;SDS011;7898;48.658;9.068;2023-08-06T13:21:32;0.90;;;0.65;;
15595;SDS011;7898;48.658;9.068;2023-08-06T13:24:00;1.02;;;0.80;;
15595;SDS011;7898;48.658;9.068;2023-08-06T13:26:27;1.17;;;0.75;;
15595;SDS011;7898;48.658;9.068;2023-08-06T13:28:54;2.97;;;0.80;;
15595;SDS011;7898;48.658;9.068;2023-08-06T13:31:22;0.80;;;0.60;;
15595;SDS011;7898;48.658;9.068;2023-08-06T13:33:51;0.40;;;0.40;;
15595;SDS011;7898;48.658;9.068;2023-08-06T13:36:20;3.05;;;0.50;;
15595;SDS011;7898;48.658;9.068;2023-08-06T13:38:47;0.73;;;0.50;;
15595;SDS011;7898;48.658;9.068;2023-08-06T13:41:14;1.52;;;0.70;;
15595;SDS011;7898;48.658;9.068;2023-08-06T13:43:41;0.57;;;0.57;;
15595;SDS011;7898;48.658;9.068;2023-08-06T13:46:09;0.73;;;0.63;;
15595;SDS011;7898;48.658;9.068;2023-08-06T13:48:39;0.65;;;0.50;;
15595;SDS011;7898;48.658;9.068;2023-08-06T13:51:08;0.73;;;0.63;;
15595;SDS011;7898;48.658;9.068;2023-08-06T13:53:35;0.93;;;0.60;;
15595;SDS011;7898;48.658;9.068;2023-08-06T13:56:02;0.75;;;0.60;;
15595;SDS011;7898;48.658;9.068;2023-08-06T13:58:30;0.88;;;0.57;;
15595;SDS011;7898;48.658;9.068;2023-08-06T14:00:57;0.77;;;0.60;;
15595;SDS011;7898;48.658;9.068;2023-08-06T14:03:24;0.52;;;0.52;;
15595;SDS011;7898;48.658;9.068;2023-08-06T14:05:51;1.38;;;0.63;;
15595;SDS011;7898;48.658;9.068;2023-08-06T14:08:21;0.90;;;0.70;;
15595;SDS011;7898;48.658;9.068;2023-08-06T14:10:49;2.53;;;1.00;;
15595;SDS011;7898;48.658;9.068;2023-08-06T14:13:16;1.13;;;1.02;;
15595;SDS011;7898;48.658;9.068;2023-08-06T14:15:43;1.55;;;1.10;;
15595;SDS011;7898;48.658;9.068;2023-08-06T14:18:12;0.90;;;0.73;;
15595;SDS011;7898;48.658;9.068;2023-08-06T14:20:39;0.73;;;0.50;;
15595;SDS011;7898;48.658;9.068;2023-08-06T14:23:06;1.00;;;0.90;;
15595;SDS011;7898;48.658;9.068;2023-08-06T14:25:34;1.48;;;1.10;;
15595;SDS011;7898;48.658;9.068;2023-08-06T14:28:01;2.25;;;0.90;;
15595;SDS011;7898;48.658;9.068;2023-08-06T14:30:28;1.27;;;1.10;;
15595;SDS011;7898;48.658;9.068;2023-08-06T14:32:55;9.00;;;4.38;;
15595;SDS011;7898;48.658;9.068;2023-08-06T14:35:22;3.35;;;1.73;;
15595;SDS011;7898;48.658;9.068;2023-08-06T14:41:13;7.18;;;3.08;;
15595;SDS011;7898;48.658;9.068;2023-08-06T14:43:39;2.40;;;1.65;;
15595;SDS011;7898;48.658;9.068;2023-08-06T14:46:06;5.75;;;2.50;;
15595;SDS011;7898;48.658;9.068;2023-08-06T14:48:33;2.50;;;1.77;;
15595;SDS011;7898;48.658;9.068;2023-08-06T14:51:00;2.10;;;0.63;;
15595;SDS011;7898;48.658;9.068;2023-08-06T14:53:27;3.15;;;1.35;;
15595;SDS011;7898;48.658;9.068;2023-08-06T14:55:54;3.38;;;2.10;;
15595;SDS011;7898;48.658;9.068;2023-08-06T14:58:22;2.15;;;0.90;;
15595;SDS011;7898;48.658;9.068;2023-08-06T15:00:49;4.10;;;1.65;;
15595;SDS011;7898;48.658;9.068;2023-08-06T15:03:16;1.70;;;0.82;;
15595;SDS011;7898;48.658;9.068;2023-08-06T15:05:43;3.25;;;1.65;;
15595;SDS011;7898;48.658;9.068;2023-08-06T15:08:12;1.73;;;1.33;;
15595;SDS011;7898;48.658;9.068;2023-08-06T15:10:39;3.28;;;2.15;;
15595;SDS011;7898;48.658;9.068;2023-08-06T15:13:06;7.07;;;2.15;;